createdAt,value
2023-05-02T00:02:33.068Z,20.85
2023-05-02T00:12:35.378Z,21.37
2023-05-02T00:22:37.849Z,23.20
2023-05-02T00:32:40.379Z,27.65
2023-05-02T00:42:42.445Z,25.90
2023-05-02T00:52:44.865Z,26.07
2023-05-02T01:03:22.952Z,27.85
2023-05-02T01:13:28.424Z,25.80
2023-05-02T01:24:11.007Z,27.55
2023-05-02T01:34:13.227Z,29.90
2023-05-02T01:44:17.077Z,28.40
2023-05-02T01:54:21.261Z,36.90
2023-05-02T02:04:23.825Z,38.90
2023-05-02T02:14:27.852Z,38.53
2023-05-02T02:24:30.799Z,36.80
2023-05-02T02:34:32.912Z,35.90
2023-05-02T02:44:44.160Z,37.10
2023-05-02T02:55:00.977Z,31.90
2023-05-02T03:05:04.568Z,28.73
2023-05-02T03:15:30.119Z,29.80
2023-05-02T03:25:33.031Z,25.95
2023-05-02T03:35:35.149Z,26.33
2023-05-02T03:45:37.881Z,24.23
2023-05-02T03:55:40.855Z,24.73
2023-05-02T04:05:45.653Z,20.07
2023-05-02T04:15:50.269Z,20.00
2023-05-02T04:25:56.592Z,21.47
2023-05-02T04:36:07.160Z,19.73
2023-05-02T04:46:10.582Z,20.13
2023-05-02T04:56:14.658Z,17.20
2023-05-02T05:06:17.624Z,20.80
2023-05-02T05:16:20.637Z,19.73
2023-05-02T05:26:25.195Z,20.70
2023-05-02T05:36:27.800Z,22.63
2023-05-02T05:46:29.934Z,30.23
2023-05-02T05:56:33.011Z,7.20
2023-05-02T06:06:48.379Z,8.43
2023-05-02T06:16:50.634Z,7.67
2023-05-02T06:26:52.714Z,12.90
2023-05-02T06:36:57.873Z,6.50
2023-05-02T06:47:00.177Z,10.87
2023-05-02T06:57:02.959Z,4.83
2023-05-02T07:07:05.249Z,6.90
2023-05-02T07:17:07.393Z,6.03
2023-05-02T07:27:10.240Z,5.23
2023-05-02T07:37:12.343Z,6.77
2023-05-02T07:47:14.363Z,6.50
2023-05-02T07:57:16.529Z,1.40
2023-05-02T08:07:18.842Z,1.83
2023-05-02T08:17:21.839Z,1.43
2023-05-02T08:27:23.920Z,2.53
2023-05-02T08:37:26.157Z,3.67
2023-05-02T08:47:29.979Z,5.10
2023-05-02T08:57:32.179Z,6.30
2023-05-02T09:07:46.463Z,5.43
2023-05-02T09:17:48.988Z,6.53
2023-05-02T09:27:57.711Z,5.87
2023-05-02T09:37:59.798Z,7.50
2023-05-02T09:48:02.741Z,5.33
2023-05-02T09:58:05.863Z,4.43
2023-05-02T10:08:11.671Z,4.33
2023-05-02T10:18:15.959Z,5.80
2023-05-02T10:28:18.406Z,3.77
2023-05-02T10:38:22.514Z,6.68
2023-05-02T10:48:27.661Z,7.17
2023-05-02T10:58:31.303Z,4.17
2023-05-02T11:08:33.417Z,8.03
2023-05-02T11:19:01.031Z,4.25
2023-05-02T11:29:03.370Z,5.20
2023-05-02T11:39:19.109Z,6.13
2023-05-02T11:49:21.466Z,5.83
2023-05-02T11:59:23.505Z,4.37
2023-05-02T12:09:25.562Z,7.33
2023-05-02T12:19:27.864Z,3.97
2023-05-02T12:29:43.254Z,4.03
2023-05-02T12:39:45.384Z,3.73
2023-05-02T12:49:52.337Z,3.77
2023-05-02T12:59:54.697Z,4.03
2023-05-02T13:09:56.732Z,3.87
2023-05-02T13:20:01.928Z,4.32
2023-05-02T13:30:08.439Z,3.33
2023-05-02T13:40:11.984Z,6.23
2023-05-02T13:50:14.016Z,5.73
2023-05-02T14:00:16.903Z,5.33
2023-05-02T14:10:18.887Z,5.47
2023-05-02T14:20:23.347Z,4.03
2023-05-02T14:30:25.461Z,3.57
2023-05-02T14:40:27.578Z,7.50
2023-05-02T14:50:29.888Z,7.13
2023-05-02T15:00:34.745Z,10.80
2023-05-02T15:10:38.064Z,7.22
2023-05-02T15:20:40.100Z,7.78
2023-05-02T15:30:42.248Z,7.05
2023-05-02T15:40:44.304Z,8.50
2023-05-02T15:50:47.183Z,6.28
2023-05-02T16:00:51.721Z,13.35
2023-05-02T16:10:54.470Z,8.97
2023-05-02T16:20:59.624Z,7.27
2023-05-02T16:31:11.037Z,12.20
2023-05-02T16:41:13.443Z,6.27
2023-05-02T16:51:15.596Z,8.83
2023-05-02T17:01:17.719Z,7.28
2023-05-02T17:11:21.882Z,5.37
2023-05-02T17:21:24.262Z,6.88
2023-05-02T17:31:26.387Z,5.83
2023-05-02T17:41:28.620Z,8.30
2023-05-02T17:51:31.991Z,6.63
2023-05-02T18:01:34.092Z,7.75
2023-05-02T18:11:36.359Z,10.50
2023-05-02T18:21:38.422Z,8.10
2023-05-02T18:31:41.867Z,4.50
2023-05-02T18:41:44.168Z,8.93
2023-05-02T18:51:46.587Z,7.88
2023-05-02T19:01:48.693Z,6.77
2023-05-02T19:11:50.890Z,7.83
2023-05-02T19:21:53.231Z,7.80
2023-05-02T19:31:55.364Z,5.07
2023-05-02T19:41:57.507Z,4.93
2023-05-02T19:51:59.530Z,5.17
2023-05-02T20:02:02.762Z,2.70
2023-05-02T20:12:05.261Z,6.53
2023-05-02T20:22:07.281Z,4.20
2023-05-02T20:32:09.382Z,5.77
2023-05-02T20:42:11.690Z,5.10
2023-05-02T20:52:15.422Z,4.87
2023-05-02T21:02:17.572Z,4.57
2023-05-02T21:12:19.605Z,3.60
2023-05-02T21:22:22.008Z,6.10
2023-05-02T21:32:25.815Z,5.80
2023-05-02T21:42:28.048Z,7.17
2023-05-02T21:52:31.648Z,8.13
2023-05-02T22:02:33.780Z,7.30
2023-05-02T22:12:35.843Z,6.47
2023-05-02T22:22:38.106Z,6.83
2023-05-02T22:32:41.259Z,6.43
2023-05-02T22:42:43.328Z,5.07
2023-05-02T22:52:46.492Z,6.73
2023-05-02T23:02:48.599Z,10.27
2023-05-02T23:12:50.773Z,6.07
2023-05-02T23:22:52.790Z,9.67
2023-05-02T23:32:54.864Z,4.93
2023-05-02T23:42:57.091Z,4.23
2023-05-02T23:52:59.349Z,6.77
